sensor_id;sensor_type;location;lat;lon;timestamp;P1;durP1;ratioP1;P2;durP2;ratioP2
21188;SDS011;39071;52.420;20.896;2022-10-29T00:00:39;5.03;;;2.70;;
21188;SDS011;39071;52.420;20.896;2022-10-29T00:03:05;6.50;;;3.47;;
21188;SDS011;39071;52.420;20.896;2022-10-29T00:05:32;4.73;;;2.50;;
21188;SDS011;39071;52.420;20.896;2022-10-29T00:07:58;4.17;;;2.50;;
21188;SDS011;39071;52.420;20.896;2022-10-29T00:10:24;5.73;;;3.43;;
21188;SDS011;39071;52.420;20.896;2022-10-29T00:12:49;7.43;;;3.17;;
21188;SDS011;39071;52.420;20.896;2022-10-29T00:15:15;4.43;;;2.33;;
21188;SDS011;39071;52.420;20.896;2022-10-29T00:17:41;8.83;;;4.23;;
21188;SDS011;39071;52.420;20.896;2022-10-29T00:20:07;7.80;;;3.27;;
21188;SDS011;39071;52.420;20.896;2022-10-29T00:22:33;4.70;;;2.83;;
21188;SDS011;39071;52.420;20.896;2022-10-29T00:24:59;8.50;;;3.70;;
21188;SDS011;39071;52.420;20.896;2022-10-29T00:27:24;7.23;;;2.93;;
21188;SDS011;39071;52.420;20.896;2022-10-29T00:29:51;6.27;;;2.63;;
21188;SDS011;39071;52.420;20.896;2022-10-29T00:32:17;8.27;;;3.23;;
21188;SDS011;39071;52.420;20.896;2022-10-29T00:34:42;6.67;;;2.80;;
21188;SDS011;39071;52.420;20.896;2022-10-29T00:37:08;5.97;;;2.97;;
21188;SDS011;39071;52.420;20.896;2022-10-29T00:39:34;6.57;;;2.93;;
21188;SDS011;39071;52.420;20.896;2022-10-29T00:42:00;4.73;;;2.60;;
21188;SDS011;39071;52.420;20.896;2022-10-29T00:44:30;8.07;;;2.97;;
21188;SDS011;39071;52.420;20.896;2022-10-29T00:50:07;5.77;;;2.70;;
21188;SDS011;39071;52.420;20.896;2022-10-29T00:52:38;10.30;;;3.70;;
21188;SDS011;39071;52.420;20.896;2022-10-29T00:55:08;5.70;;;3.10;;
21188;SDS011;39071;52.420;20.896;2022-10-29T00:57:36;7.50;;;3.07;;
21188;SDS011;39071;52.420;20.896;2022-10-29T01:00:04;6.10;;;3.40;;
21188;SDS011;39071;52.420;20.896;2022-10-29T01:02:30;5.50;;;2.53;;
21188;SDS011;39071;52.420;20.896;2022-10-29T01:04:59;8.03;;;3.60;;
21188;SDS011;39071;52.420;20.896;2022-10-29T01:07:27;4.40;;;2.50;;
21188;SDS011;39071;52.420;20.896;2022-10-29T01:09:53;5.60;;;2.13;;
21188;SDS011;39071;52.420;20.896;2022-10-29T01:15:22;9.13;;;2.67;;
21188;SDS011;39071;52.420;20.896;2022-10-29T01:17:58;4.40;;;2.77;;
21188;SDS011;39071;52.420;20.896;2022-10-29T01:20:45;4.27;;;2.60;;
21188;SDS011;39071;52.420;20.896;2022-10-29T01:23:27;4.57;;;3.20;;
21188;SDS011;39071;52.420;20.896;2022-10-29T01:32:00;3.63;;;2.20;;
21188;SDS011;39071;52.420;20.896;2022-10-29T01:37:30;4.90;;;2.37;;
21188;SDS011;39071;52.420;20.896;2022-10-29T01:40:16;5.87;;;2.60;;
21188;SDS011;39071;52.420;20.896;2022-10-29T01:43:07;10.37;;;3.47;;
21188;SDS011;39071;52.420;20.896;2022-10-29T01:45:40;4.87;;;3.10;;
21188;SDS011;39071;52.420;20.896;2022-10-29T01:48:11;5.30;;;2.83;;
21188;SDS011;39071;52.420;20.896;2022-10-29T01:50:42;6.03;;;2.60;;
21188;SDS011;39071;52.420;20.896;2022-10-29T01:53:11;7.13;;;2.27;;
21188;SDS011;39071;52.420;20.896;2022-10-29T01:55:38;7.30;;;3.27;;
21188;SDS011;39071;52.420;20.896;2022-10-29T01:58:04;5.67;;;2.77;;
21188;SDS011;39071;52.420;20.896;2022-10-29T02:00:49;5.43;;;2.93;;
21188;SDS011;39071;52.420;20.896;2022-10-29T02:03:37;7.23;;;2.97;;
21188;SDS011;39071;52.420;20.896;2022-10-29T02:09:14;10.33;;;2.80;;
21188;SDS011;39071;52.420;20.896;2022-10-29T02:14:37;5.53;;;2.23;;
21188;SDS011;39071;52.420;20.896;2022-10-29T02:17:10;7.20;;;3.40;;
21188;SDS011;39071;52.420;20.896;2022-10-29T02:19:36;5.90;;;2.47;;
21188;SDS011;39071;52.420;20.896;2022-10-29T02:22:02;5.00;;;2.40;;
21188;SDS011;39071;52.420;20.896;2022-10-29T02:24:27;4.53;;;2.20;;
21188;SDS011;39071;52.420;20.896;2022-10-29T02:26:53;4.53;;;2.50;;
21188;SDS011;39071;52.420;20.896;2022-10-29T02:29:19;5.10;;;2.50;;
21188;SDS011;39071;52.420;20.896;2022-10-29T02:31:45;5.13;;;3.27;;
21188;SDS011;39071;52.420;20.896;2022-10-29T02:34:11;6.10;;;3.17;;
21188;SDS011;39071;52.420;20.896;2022-10-29T02:36:37;8.87;;;3.13;;
21188;SDS011;39071;52.420;20.896;2022-10-29T02:39:02;6.80;;;2.43;;
21188;SDS011;39071;52.420;20.896;2022-10-29T02:41:28;4.90;;;2.43;;
21188;SDS011;39071;52.420;20.896;2022-10-29T02:43:54;5.10;;;2.13;;
21188;SDS011;39071;52.420;20.896;2022-10-29T02:46:20;5.07;;;3.00;;
21188;SDS011;39071;52.420;20.896;2022-10-29T02:48:47;6.60;;;3.10;;
21188;SDS011;39071;52.420;20.896;2022-10-29T02:51:14;5.07;;;2.97;;
21188;SDS011;39071;52.420;20.896;2022-10-29T02:53:41;5.33;;;2.53;;
21188;SDS011;39071;52.420;20.896;2022-10-29T02:56:07;4.90;;;2.27;;
21188;SDS011;39071;52.420;20.896;2022-10-29T02:58:33;4.80;;;2.33;;
21188;SDS011;39071;52.420;20.896;2022-10-29T03:01:00;4.20;;;2.87;;
21188;SDS011;39071;52.420;20.896;2022-10-29T03:03:26;2.90;;;2.00;;
21188;SDS011;39071;52.420;20.896;2022-10-29T03:05:52;4.77;;;2.47;;
21188;SDS011;39071;52.420;20.896;2022-10-29T03:08:18;6.57;;;2.90;;
21188;SDS011;39071;52.420;20.896;2022-10-29T03:10:44;5.43;;;2.87;;
21188;SDS011;39071;52.420;20.896;2022-10-29T03:13:09;6.10;;;3.13;;
21188;SDS011;39071;52.420;20.896;2022-10-29T03:15:36;5.43;;;2.73;;
21188;SDS011;39071;52.420;20.896;2022-10-29T03:18:02;7.43;;;2.50;;
21188;SDS011;39071;52.420;20.896;2022-10-29T03:20:29;5.97;;;2.10;;
21188;SDS011;39071;52.420;20.896;2022-10-29T03:22:54;6.40;;;2.60;;
21188;SDS011;39071;52.420;20.896;2022-10-29T03:25:20;4.60;;;2.43;;
21188;SDS011;39071;52.420;20.896;2022-10-29T03:27:46;6.57;;;2.87;;
21188;SDS011;39071;52.420;20.896;2022-10-29T03:30:13;6.23;;;2.30;;
21188;SDS011;39071;52.420;20.896;2022-10-29T03:32:44;4.40;;;2.50;;
21188;SDS011;39071;52.420;20.896;2022-10-29T03:35:11;2.70;;;2.00;;
21188;SDS011;39071;52.420;20.896;2022-10-29T03:37:38;2.57;;;1.97;;
21188;SDS011;39071;52.420;20.896;2022-10-29T03:40:04;5.33;;;2.47;;
21188;SDS011;39071;52.420;20.896;2022-10-29T03:42:30;6.07;;;2.90;;
21188;SDS011;39071;52.420;20.896;2022-10-29T03:44:59;3.83;;;2.70;;
21188;SDS011;39071;52.420;20.896;2022-10-29T03:47:26;5.07;;;2.03;;
21188;SDS011;39071;52.420;20.896;2022-10-29T03:49:53;5.30;;;1.90;;
21188;SDS011;39071;52.420;20.896;2022-10-29T03:52:19;5.47;;;3.23;;
21188;SDS011;39071;52.420;20.896;2022-10-29T03:54:45;5.37;;;2.33;;
21188;SDS011;39071;52.420;20.896;2022-10-29T03:57:11;5.13;;;2.57;;
21188;SDS011;39071;52.420;20.896;2022-10-29T03:59:37;7.33;;;2.93;;
21188;SDS011;39071;52.420;20.896;2022-10-29T04:02:03;3.70;;;2.07;;
21188;SDS011;39071;52.420;20.896;2022-10-29T04:04:29;4.63;;;2.80;;
21188;SDS011;39071;52.420;20.896;2022-10-29T04:06:54;2.90;;;2.17;;
21188;SDS011;39071;52.420;20.896;2022-10-29T04:09:20;5.57;;;2.50;;
21188;SDS011;39071;52.420;20.896;2022-10-29T04:11:46;3.83;;;2.00;;
21188;SDS011;39071;52.420;20.896;2022-10-29T04:14:11;5.10;;;2.57;;
21188;SDS011;39071;52.420;20.896;2022-10-29T04:16:37;3.40;;;2.20;;
21188;SDS011;39071;52.420;20.896;2022-10-29T04:19:03;3.70;;;1.80;;
21188;SDS011;39071;52.420;20.896;2022-10-29T04:21:29;4.73;;;2.33;;
21188;SDS011;39071;52.420;20.896;2022-10-29T04:23:54;7.27;;;3.30;;
21188;SDS011;39071;52.420;20.896;2022-10-29T04:26:20;5.50;;;2.37;;
21188;SDS011;39071;52.420;20.896;2022-10-29T04:28:49;3.33;;;2.87;;
21188;SDS011;39071;52.420;20.896;2022-10-29T04:31:15;2.90;;;1.93;;
21188;SDS011;39071;52.420;20.896;2022-10-29T04:33:42;4.30;;;2.30;;
21188;SDS011;39071;52.420;20.896;2022-10-29T04:36:08;4.43;;;1.97;;
21188;SDS011;39071;52.420;20.896;2022-10-29T04:38:34;5.67;;;3.60;;
21188;SDS011;39071;52.420;20.896;2022-10-29T04:41:00;3.33;;;2.20;;
21188;SDS011;39071;52.420;20.896;2022-10-29T04:43:26;6.03;;;2.80;;
21188;SDS011;39071;52.420;20.896;2022-10-29T04:45:53;4.87;;;2.27;;
21188;SDS011;39071;52.420;20.896;2022-10-29T04:48:22;4.83;;;2.17;;
21188;SDS011;39071;52.420;20.896;2022-10-29T04:50:49;4.60;;;2.30;;
21188;SDS011;39071;52.420;20.896;2022-10-29T04:53:15;6.27;;;2.80;;
21188;SDS011;39071;52.420;20.896;2022-10-29T04:55:41;5.60;;;2.27;;
21188;SDS011;39071;52.420;20.896;2022-10-29T04:58:10;3.63;;;2.20;;
21188;SDS011;39071;52.420;20.896;2022-10-29T05:00:38;3.73;;;1.80;;
21188;SDS011;39071;52.420;20.896;2022-10-29T05:03:03;5.23;;;2.30;;
21188;SDS011;39071;52.420;20.896;2022-10-29T05:05:29;3.37;;;2.33;;
21188;SDS011;39071;52.420;20.896;2022-10-29T05:07:55;7.30;;;3.20;;
21188;SDS011;39071;52.420;20.896;2022-10-29T05:10:23;5.10;;;2.30;;
21188;SDS011;39071;52.420;20.896;2022-10-29T05:12:57;5.97;;;2.47;;
21188;SDS011;39071;52.420;20.896;2022-10-29T05:15:24;3.47;;;2.20;;
21188;SDS011;39071;52.420;20.896;2022-10-29T05:17:51;4.37;;;2.53;;
21188;SDS011;39071;52.420;20.896;2022-10-29T05:20:17;4.10;;;2.37;;
21188;SDS011;39071;52.420;20.896;2022-10-29T05:22:42;7.33;;;2.40;;
21188;SDS011;39071;52.420;20.896;2022-10-29T05:25:08;4.87;;;2.00;;
21188;SDS011;39071;52.420;20.896;2022-10-29T05:27:34;3.30;;;2.40;;
21188;SDS011;39071;52.420;20.896;2022-10-29T05:30:00;5.40;;;2.30;;
21188;SDS011;39071;52.420;20.896;2022-10-29T05:32:28;5.93;;;2.57;;
21188;SDS011;39071;52.420;20.896;2022-10-29T05:34:54;6.10;;;3.07;;
21188;SDS011;39071;52.420;20.896;2022-10-29T05:37:20;4.20;;;1.97;;
21188;SDS011;39071;52.420;20.896;2022-10-29T05:39:45;10.53;;;3.00;;
21188;SDS011;39071;52.420;20.896;2022-10-29T05:42:11;6.33;;;2.77;;
21188;SDS011;39071;52.420;20.896;2022-10-29T05:44:37;3.47;;;2.23;;
21188;SDS011;39071;52.420;20.896;2022-10-29T05:47:04;5.00;;;2.47;;
21188;SDS011;39071;52.420;20.896;2022-10-29T05:49:30;4.60;;;2.43;;
21188;SDS011;39071;52.420;20.896;2022-10-29T05:51:56;2.50;;;1.97;;
21188;SDS011;39071;52.420;20.896;2022-10-29T05:54:22;3.50;;;2.43;;
21188;SDS011;39071;52.420;20.896;2022-10-29T05:56:47;3.67;;;2.10;;
21188;SDS011;39071;52.420;20.896;2022-10-29T05:59:13;4.23;;;2.27;;
21188;SDS011;39071;52.420;20.896;2022-10-29T06:01:39;5.60;;;2.50;;
21188;SDS011;39071;52.420;20.896;2022-10-29T06:04:05;4.27;;;2.17;;
21188;SDS011;39071;52.420;20.896;2022-10-29T06:06:30;3.87;;;2.13;;
21188;SDS011;39071;52.420;20.896;2022-10-29T06:08:56;3.23;;;1.63;;
21188;SDS011;39071;52.420;20.896;2022-10-29T06:11:22;5.23;;;2.03;;
21188;SDS011;39071;52.420;20.896;2022-10-29T06:13:47;3.30;;;1.87;;
21188;SDS011;39071;52.420;20.896;2022-10-29T06:16:13;5.10;;;2.30;;
21188;SDS011;39071;52.420;20.896;2022-10-29T06:18:39;4.80;;;2.40;;
21188;SDS011;39071;52.420;20.896;2022-10-29T06:21:05;5.73;;;2.13;;
21188;SDS011;39071;52.420;20.896;2022-10-29T06:23:30;5.60;;;2.27;;
21188;SDS011;39071;52.420;20.896;2022-10-29T06:25:59;8.37;;;2.63;;
21188;SDS011;39071;52.420;20.896;2022-10-29T06:28:25;4.63;;;2.13;;
21188;SDS011;39071;52.420;20.896;2022-10-29T06:30:51;6.57;;;2.50;;
21188;SDS011;39071;52.420;20.896;2022-10-29T06:33:17;6.33;;;2.27;;
21188;SDS011;39071;52.420;20.896;2022-10-29T06:35:43;8.47;;;2.93;;
21188;SDS011;39071;52.420;20.896;2022-10-29T06:38:09;4.10;;;2.70;;
21188;SDS011;39071;52.420;20.896;2022-10-29T06:40:36;10.03;;;2.17;;
21188;SDS011;39071;52.420;20.896;2022-10-29T06:43:02;6.03;;;3.43;;
21188;SDS011;39071;52.420;20.896;2022-10-29T06:45:30;3.47;;;1.83;;
21188;SDS011;39071;52.420;20.896;2022-10-29T06:47:56;5.43;;;2.27;;
21188;SDS011;39071;52.420;20.896;2022-10-29T06:50:22;6.70;;;2.43;;
21188;SDS011;39071;52.420;20.896;2022-10-29T06:55:20;6.43;;;2.90;;
21188;SDS011;39071;52.420;20.896;2022-10-29T06:57:46;3.07;;;1.70;;
21188;SDS011;39071;52.420;20.896;2022-10-29T07:00:11;4.83;;;2.87;;
21188;SDS011;39071;52.420;20.896;2022-10-29T07:02:37;4.90;;;2.63;;
21188;SDS011;39071;52.420;20.896;2022-10-29T07:05:03;7.37;;;3.57;;
21188;SDS011;39071;52.420;20.896;2022-10-29T07:07:29;5.40;;;2.13;;
21188;SDS011;39071;52.420;20.896;2022-10-29T07:09:55;4.23;;;2.30;;
21188;SDS011;39071;52.420;20.896;2022-10-29T07:12:22;5.30;;;2.57;;
21188;SDS011;39071;52.420;20.896;2022-10-29T07:14:47;5.77;;;3.00;;
21188;SDS011;39071;52.420;20.896;2022-10-29T07:17:13;4.97;;;3.20;;
21188;SDS011;39071;52.420;20.896;2022-10-29T07:19:39;6.40;;;2.35;;
21188;SDS011;39071;52.420;20.896;2022-10-29T07:22:04;6.97;;;2.60;;
21188;SDS011;39071;52.420;20.896;2022-10-29T07:24:30;7.40;;;2.22;;
21188;SDS011;39071;52.420;20.896;2022-10-29T07:26:56;4.90;;;2.25;;
21188;SDS011;39071;52.420;20.896;2022-10-29T07:29:22;3.70;;;1.92;;
21188;SDS011;39071;52.420;20.896;2022-10-29T07:31:48;4.07;;;2.55;;
21188;SDS011;39071;52.420;20.896;2022-10-29T07:34:13;7.82;;;3.67;;
21188;SDS011;39071;52.420;20.896;2022-10-29T07:36:39;5.18;;;3.20;;
21188;SDS011;39071;52.420;20.896;2022-10-29T07:39:05;8.57;;;3.60;;
21188;SDS011;39071;52.420;20.896;2022-10-29T07:41:31;3.58;;;1.83;;
21188;SDS011;39071;52.420;20.896;2022-10-29T07:43:57;7.88;;;2.90;;
21188;SDS011;39071;52.420;20.896;2022-10-29T07:46:23;5.40;;;2.33;;
21188;SDS011;39071;52.420;20.896;2022-10-29T07:48:48;4.00;;;2.58;;
21188;SDS011;39071;52.420;20.896;2022-10-29T07:51:14;5.63;;;2.90;;
21188;SDS011;39071;52.420;20.896;2022-10-29T07:53:40;9.52;;;3.33;;
21188;SDS011;39071;52.420;20.896;2022-10-29T07:56:06;7.35;;;2.90;;
21188;SDS011;39071;52.420;20.896;2022-10-29T07:58:32;4.25;;;2.20;;
21188;SDS011;39071;52.420;20.896;2022-10-29T08:00:58;6.57;;;2.55;;
21188;SDS011;39071;52.420;20.896;2022-10-29T08:03:24;4.38;;;1.80;;
21188;SDS011;39071;52.420;20.896;2022-10-29T08:05:50;8.20;;;3.22;;
21188;SDS011;39071;52.420;20.896;2022-10-29T08:08:16;2.10;;;1.80;;
21188;SDS011;39071;52.420;20.896;2022-10-29T08:10:41;7.65;;;2.92;;
21188;SDS011;39071;52.420;20.896;2022-10-29T08:13:08;6.32;;;2.80;;
21188;SDS011;39071;52.420;20.896;2022-10-29T08:15:34;5.95;;;2.33;;
21188;SDS011;39071;52.420;20.896;2022-10-29T08:18:00;2.17;;;1.40;;
21188;SDS011;39071;52.420;20.896;2022-10-29T08:20:28;7.60;;;2.78;;
21188;SDS011;39071;52.420;20.896;2022-10-29T08:22:54;7.53;;;1.90;;
21188;SDS011;39071;52.420;20.896;2022-10-29T08:25:22;10.30;;;3.92;;
21188;SDS011;39071;52.420;20.896;2022-10-29T08:27:59;6.53;;;2.38;;
21188;SDS011;39071;52.420;20.896;2022-10-29T08:30:26;4.95;;;2.50;;
21188;SDS011;39071;52.420;20.896;2022-10-29T08:32:52;3.90;;;2.13;;
21188;SDS011;39071;52.420;20.896;2022-10-29T08:35:18;5.90;;;2.47;;
21188;SDS011;39071;52.420;20.896;2022-10-29T08:37:44;3.13;;;2.67;;
21188;SDS011;39071;52.420;20.896;2022-10-29T08:42:56;6.82;;;2.28;;
21188;SDS011;39071;52.420;20.896;2022-10-29T08:45:36;6.15;;;2.35;;
21188;SDS011;39071;52.420;20.896;2022-10-29T08:51:35;4.07;;;2.15;;
21188;SDS011;39071;52.420;20.896;2022-10-29T08:53:47;4.60;;;2.17;;
21188;SDS011;39071;52.420;20.896;2022-10-29T08:56:17;4.90;;;2.22;;
21188;SDS011;39071;52.420;20.896;2022-10-29T08:59:07;5.85;;;1.98;;
21188;SDS011;39071;52.420;20.896;2022-10-29T09:01:38;2.85;;;1.75;;
21188;SDS011;39071;52.420;20.896;2022-10-29T09:20:53;5.72;;;2.38;;
21188;SDS011;39071;52.420;20.896;2022-10-29T09:26:13;10.13;;;3.00;;
21188;SDS011;39071;52.420;20.896;2022-10-29T09:31:36;7.97;;;3.22;;
21188;SDS011;39071;52.420;20.896;2022-10-29T09:37:22;6.10;;;3.10;;
21188;SDS011;39071;52.420;20.896;2022-10-29T09:39:57;7.18;;;3.58;;
21188;SDS011;39071;52.420;20.896;2022-10-29T09:42:34;8.40;;;4.20;;
21188;SDS011;39071;52.420;20.896;2022-10-29T09:45:04;9.30;;;3.53;;
21188;SDS011;39071;52.420;20.896;2022-10-29T09:50:30;6.13;;;3.30;;
21188;SDS011;39071;52.420;20.896;2022-10-29T09:53:05;4.60;;;2.60;;
21188;SDS011;39071;52.420;20.896;2022-10-29T09:55:37;5.50;;;3.08;;
21188;SDS011;39071;52.420;20.896;2022-10-29T09:58:41;9.00;;;3.30;;
21188;SDS011;39071;52.420;20.896;2022-10-29T10:01:06;7.45;;;3.67;;
21188;SDS011;39071;52.420;20.896;2022-10-29T10:03:37;9.57;;;3.47;;
21188;SDS011;39071;52.420;20.896;2022-10-29T10:06:10;14.95;;;3.78;;
21188;SDS011;39071;52.420;20.896;2022-10-29T10:08:59;10.48;;;3.33;;
21188;SDS011;39071;52.420;20.896;2022-10-29T10:11:32;15.45;;;5.50;;
21188;SDS011;39071;52.420;20.896;2022-10-29T10:14:08;10.82;;;3.42;;
21188;SDS011;39071;52.420;20.896;2022-10-29T10:16:41;8.60;;;3.28;;
21188;SDS011;39071;52.420;20.896;2022-10-29T10:19:21;6.57;;;3.53;;
21188;SDS011;39071;52.420;20.896;2022-10-29T10:21:55;8.18;;;3.35;;
21188;SDS011;39071;52.420;20.896;2022-10-29T10:24:30;11.38;;;4.40;;
21188;SDS011;39071;52.420;20.896;2022-10-29T10:27:00;7.75;;;3.78;;
21188;SDS011;39071;52.420;20.896;2022-10-29T10:32:32;11.05;;;4.40;;
21188;SDS011;39071;52.420;20.896;2022-10-29T10:34:58;8.02;;;3.47;;
21188;SDS011;39071;52.420;20.896;2022-10-29T10:37:24;6.60;;;3.53;;
21188;SDS011;39071;52.420;20.896;2022-10-29T10:39:50;15.90;;;5.45;;
21188;SDS011;39071;52.420;20.896;2022-10-29T10:42:29;11.05;;;4.05;;
21188;SDS011;39071;52.420;20.896;2022-10-29T10:45:43;7.72;;;3.90;;
21188;SDS011;39071;52.420;20.896;2022-10-29T10:47:56;7.47;;;3.47;;
21188;SDS011;39071;52.420;20.896;2022-10-29T10:50:25;17.05;;;4.60;;
21188;SDS011;39071;52.420;20.896;2022-10-29T10:52:53;7.38;;;3.53;;
21188;SDS011;39071;52.420;20.896;2022-10-29T10:55:26;8.50;;;3.63;;
21188;SDS011;39071;52.420;20.896;2022-10-29T10:58:12;8.52;;;4.32;;
21188;SDS011;39071;52.420;20.896;2022-10-29T11:00:58;9.48;;;4.00;;
21188;SDS011;39071;52.420;20.896;2022-10-29T11:04:04;10.38;;;4.00;;
21188;SDS011;39071;52.420;20.896;2022-10-29T11:06:38;12.52;;;3.83;;
21188;SDS011;39071;52.420;20.896;2022-10-29T11:14:30;9.32;;;3.88;;
21188;SDS011;39071;52.420;20.896;2022-10-29T11:17:00;8.18;;;3.15;;
21188;SDS011;39071;52.420;20.896;2022-10-29T11:22:24;3.97;;;2.88;;
21188;SDS011;39071;52.420;20.896;2022-10-29T11:25:23;6.78;;;3.45;;
21188;SDS011;39071;52.420;20.896;2022-10-29T11:28:02;8.68;;;3.92;;
21188;SDS011;39071;52.420;20.896;2022-10-29T11:30:51;7.75;;;4.63;;
21188;SDS011;39071;52.420;20.896;2022-10-29T11:38:48;6.18;;;3.85;;
21188;SDS011;39071;52.420;20.896;2022-10-29T11:41:21;6.40;;;3.10;;
21188;SDS011;39071;52.420;20.896;2022-10-29T11:44:03;7.38;;;3.25;;
21188;SDS011;39071;52.420;20.896;2022-10-29T11:52:20;11.43;;;3.45;;
21188;SDS011;39071;52.420;20.896;2022-10-29T12:01:42;7.32;;;3.53;;
21188;SDS011;39071;52.420;20.896;2022-10-29T12:04:44;5.50;;;2.70;;
21188;SDS011;39071;52.420;20.896;2022-10-29T12:12:50;5.65;;;2.45;;
21188;SDS011;39071;52.420;20.896;2022-10-29T12:15:36;5.85;;;2.63;;
21188;SDS011;39071;52.420;20.896;2022-10-29T12:18:55;3.95;;;2.40;;
21188;SDS011;39071;52.420;20.896;2022-10-29T12:21:08;7.05;;;3.20;;
21188;SDS011;39071;52.420;20.896;2022-10-29T12:24:05;11.85;;;4.03;;
21188;SDS011;39071;52.420;20.896;2022-10-29T12:29:39;5.28;;;3.00;;
21188;SDS011;39071;52.420;20.896;2022-10-29T12:34:53;7.43;;;3.35;;
21188;SDS011;39071;52.420;20.896;2022-10-29T12:40:02;6.45;;;3.35;;
21188;SDS011;39071;52.420;20.896;2022-10-29T12:42:51;10.68;;;3.88;;
21188;SDS011;39071;52.420;20.896;2022-10-29T12:53:20;8.32;;;4.00;;
21188;SDS011;39071;52.420;20.896;2022-10-29T12:55:50;6.30;;;3.95;;
21188;SDS011;39071;52.420;20.896;2022-10-29T13:09:26;4.75;;;2.95;;
21188;SDS011;39071;52.420;20.896;2022-10-29T13:12:01;13.45;;;5.43;;
21188;SDS011;39071;52.420;20.896;2022-10-29T13:14:31;6.63;;;3.55;;
21188;SDS011;39071;52.420;20.896;2022-10-29T13:17:25;6.20;;;3.50;;
21188;SDS011;39071;52.420;20.896;2022-10-29T13:19:52;5.55;;;3.90;;
21188;SDS011;39071;52.420;20.896;2022-10-29T13:27:52;5.72;;;4.40;;
21188;SDS011;39071;52.420;20.896;2022-10-29T13:30:25;8.75;;;2.83;;
21188;SDS011;39071;52.420;20.896;2022-10-29T13:32:52;8.50;;;3.72;;
21188;SDS011;39071;52.420;20.896;2022-10-29T13:45:29;7.88;;;2.88;;
21188;SDS011;39071;52.420;20.896;2022-10-29T13:48:00;4.35;;;2.72;;
21188;SDS011;39071;52.420;20.896;2022-10-29T13:50:30;7.63;;;3.78;;
21188;SDS011;39071;52.420;20.896;2022-10-29T13:52:59;11.07;;;3.10;;
21188;SDS011;39071;52.420;20.896;2022-10-29T13:55:29;6.50;;;2.97;;
21188;SDS011;39071;52.420;20.896;2022-10-29T14:00:28;5.88;;;2.92;;
21188;SDS011;39071;52.420;20.896;2022-10-29T14:02:57;8.75;;;3.63;;
21188;SDS011;39071;52.420;20.896;2022-10-29T14:05:48;4.82;;;3.00;;
21188;SDS011;39071;52.420;20.896;2022-10-29T14:11:11;3.70;;;2.08;;
21188;SDS011;39071;52.420;20.896;2022-10-29T14:13:53;5.47;;;2.95;;
21188;SDS011;39071;52.420;20.896;2022-10-29T14:16:24;5.38;;;3.20;;
21188;SDS011;39071;52.420;20.896;2022-10-29T14:18:53;7.05;;;2.75;;
21188;SDS011;39071;52.420;20.896;2022-10-29T14:21:23;6.07;;;3.35;;
21188;SDS011;39071;52.420;20.896;2022-10-29T14:23:57;6.97;;;2.95;;
21188;SDS011;39071;52.420;20.896;2022-10-29T14:26:25;4.38;;;3.67;;
21188;SDS011;39071;52.420;20.896;2022-10-29T14:28:53;7.57;;;4.43;;
21188;SDS011;39071;52.420;20.896;2022-10-29T14:31:20;4.55;;;2.72;;
21188;SDS011;39071;52.420;20.896;2022-10-29T14:33:57;5.35;;;3.22;;
21188;SDS011;39071;52.420;20.896;2022-10-29T14:41:50;3.83;;;2.40;;
21188;SDS011;39071;52.420;20.896;2022-10-29T14:44:24;8.02;;;3.08;;
21188;SDS011;39071;52.420;20.896;2022-10-29T14:47:00;5.45;;;3.85;;
21188;SDS011;39071;52.420;20.896;2022-10-29T14:49:30;5.35;;;3.28;;
21188;SDS011;39071;52.420;20.896;2022-10-29T14:52:15;3.75;;;2.85;;
21188;SDS011;39071;52.420;20.896;2022-10-29T14:54:47;6.32;;;3.90;;
21188;SDS011;39071;52.420;20.896;2022-10-29T14:57:15;3.40;;;2.90;;
21188;SDS011;39071;52.420;20.896;2022-10-29T14:59:50;4.38;;;2.75;;
21188;SDS011;39071;52.420;20.896;2022-10-29T15:02:19;4.35;;;2.30;;
21188;SDS011;39071;52.420;20.896;2022-10-29T15:04:54;6.73;;;3.10;;
21188;SDS011;39071;52.420;20.896;2022-10-29T15:09:48;8.33;;;3.27;;
21188;SDS011;39071;52.420;20.896;2022-10-29T15:12:22;6.83;;;3.87;;
21188;SDS011;39071;52.420;20.896;2022-10-29T15:14:56;7.85;;;4.38;;
21188;SDS011;39071;52.420;20.896;2022-10-29T15:17:51;6.43;;;3.83;;
21188;SDS011;39071;52.420;20.896;2022-10-29T15:20:28;10.50;;;3.97;;
21188;SDS011;39071;52.420;20.896;2022-10-29T15:22:59;10.60;;;4.30;;
21188;SDS011;39071;52.420;20.896;2022-10-29T15:25:35;6.13;;;3.37;;
21188;SDS011;39071;52.420;20.896;2022-10-29T15:28:03;5.70;;;3.60;;
21188;SDS011;39071;52.420;20.896;2022-10-29T15:30:35;5.43;;;3.23;;
21188;SDS011;39071;52.420;20.896;2022-10-29T15:33:03;6.43;;;3.83;;
21188;SDS011;39071;52.420;20.896;2022-10-29T15:35:34;9.02;;;3.60;;
21188;SDS011;39071;52.420;20.896;2022-10-29T15:38:11;5.53;;;3.37;;
21188;SDS011;39071;52.420;20.896;2022-10-29T15:43:32;9.93;;;4.47;;
21188;SDS011;39071;52.420;20.896;2022-10-29T15:46:11;6.97;;;4.53;;
21188;SDS011;39071;52.420;20.896;2022-10-29T15:48:49;6.90;;;3.87;;
21188;SDS011;39071;52.420;20.896;2022-10-29T15:51:16;7.40;;;3.77;;
21188;SDS011;39071;52.420;20.896;2022-10-29T15:53:42;13.13;;;4.63;;
21188;SDS011;39071;52.420;20.896;2022-10-29T15:56:11;5.30;;;3.90;;
21188;SDS011;39071;52.420;20.896;2022-10-29T15:58:38;9.50;;;4.13;;
21188;SDS011;39071;52.420;20.896;2022-10-29T16:01:04;6.30;;;3.67;;
21188;SDS011;39071;52.420;20.896;2022-10-29T16:03:30;5.93;;;3.90;;
21188;SDS011;39071;52.420;20.896;2022-10-29T16:06:01;7.77;;;4.07;;
21188;SDS011;39071;52.420;20.896;2022-10-29T16:08:32;11.10;;;4.67;;
21188;SDS011;39071;52.420;20.896;2022-10-29T16:11:02;12.57;;;4.20;;
21188;SDS011;39071;52.420;20.896;2022-10-29T16:13:32;8.60;;;4.07;;
21188;SDS011;39071;52.420;20.896;2022-10-29T16:15:59;7.77;;;4.60;;
21188;SDS011;39071;52.420;20.896;2022-10-29T16:18:25;11.40;;;4.33;;
21188;SDS011;39071;52.420;20.896;2022-10-29T16:20:58;10.40;;;5.93;;
21188;SDS011;39071;52.420;20.896;2022-10-29T16:23:28;9.40;;;3.47;;
21188;SDS011;39071;52.420;20.896;2022-10-29T16:25:54;8.03;;;3.90;;
21188;SDS011;39071;52.420;20.896;2022-10-29T16:28:20;6.73;;;3.50;;
21188;SDS011;39071;52.420;20.896;2022-10-29T16:30:53;7.77;;;3.77;;
21188;SDS011;39071;52.420;20.896;2022-10-29T16:33:21;10.53;;;4.53;;
21188;SDS011;39071;52.420;20.896;2022-10-29T16:35:47;10.00;;;3.70;;
21188;SDS011;39071;52.420;20.896;2022-10-29T16:38:13;9.13;;;4.07;;
21188;SDS011;39071;52.420;20.896;2022-10-29T16:40:40;12.87;;;5.37;;
21188;SDS011;39071;52.420;20.896;2022-10-29T16:43:07;9.27;;;5.27;;
21188;SDS011;39071;52.420;20.896;2022-10-29T16:45:33;9.20;;;4.03;;
21188;SDS011;39071;52.420;20.896;2022-10-29T16:47:59;9.60;;;4.80;;
21188;SDS011;39071;52.420;20.896;2022-10-29T16:50:26;10.03;;;4.53;;
21188;SDS011;39071;52.420;20.896;2022-10-29T16:53:06;13.27;;;5.80;;
21188;SDS011;39071;52.420;20.896;2022-10-29T16:55:37;11.10;;;4.77;;
21188;SDS011;39071;52.420;20.896;2022-10-29T16:58:11;7.70;;;5.00;;
21188;SDS011;39071;52.420;20.896;2022-10-29T17:00:37;10.17;;;5.00;;
21188;SDS011;39071;52.420;20.896;2022-10-29T17:03:04;7.47;;;3.93;;
21188;SDS011;39071;52.420;20.896;2022-10-29T17:05:34;9.73;;;4.77;;
21188;SDS011;39071;52.420;20.896;2022-10-29T17:08:00;12.33;;;4.93;;
21188;SDS011;39071;52.420;20.896;2022-10-29T17:10:26;7.60;;;3.50;;
21188;SDS011;39071;52.420;20.896;2022-10-29T17:12:52;8.33;;;5.53;;
21188;SDS011;39071;52.420;20.896;2022-10-29T17:15:18;7.50;;;3.50;;
21188;SDS011;39071;52.420;20.896;2022-10-29T17:17:44;9.80;;;3.97;;
21188;SDS011;39071;52.420;20.896;2022-10-29T17:20:09;7.63;;;3.80;;